Time;durP1;ratioP1;P1;durP2;ratioP2;P2;SDS_P1;SDS_P2;PMS_P1;PMS_P2;Temp;Humidity;BMP_temperature;BMP_pressure;BME280_temperature;BME280_humidity;BME280_pressure;Samples;Min_cycle;Max_cycle;Signal;HPM_P1;HPM_P2
2024/03/01 00:00:55;;;;;;;59.95;27.30;;;;;;;;;;5052653;28;20056;-72
2024/03/01 00:03:59;;;;;;;63.50;27.30;;;;;;;;;;5052897;28;20052;-72
2024/03/01 00:07:04;;;;;;;70.63;28.25;;;;;;;;;;5052654;28;20397;-72
2024/03/01 00:10:09;;;;;;;63.65;28.10;;;;;;;;;;5053465;28;20044;-72
2024/03/01 00:13:14;;;;;;;58.78;27.48;;;;;;;;;;5054275;28;20048;-72
2024/03/01 00:16:19;;;;;;;69.25;26.92;;;;;;;;;;5053591;28;20064;-72
2024/03/01 00:19:23;;;;;;;65.47;26.35;;;;;;;;;;5051966;28;20064;-72
2024/03/01 00:22:27;;;;;;;60.58;25.50;;;;;;;;;;5052816;28;20048;-71
2024/03/01 00:25:32;;;;;;;55.90;24.83;;;;;;;;;;5052617;28;20039;-72
2024/03/01 00:28:36;;;;;;;68.32;28.13;;;;;;;;;;5052585;28;20048;-72
2024/03/01 00:31:41;;;;;;;71.80;28.50;;;;;;;;;;5052545;28;20048;-72
2024/03/01 00:34:45;;;;;;;58.38;26.15;;;;;;;;;;5052603;28;20043;-71
2024/03/01 00:37:49;;;;;;;57.50;25.50;;;;;;;;;;5052216;28;20051;-71
2024/03/01 00:40:54;;;;;;;57.33;24.85;;;;;;;;;;5052523;28;20048;-72
2024/03/01 00:43:58;;;;;;;58.03;25.48;;;;;;;;;;5051730;28;20040;-72
2024/03/01 00:47:03;;;;;;;62.97;26.23;;;;;;;;;;5052225;28;20044;-72
2024/03/01 00:50:07;;;;;;;58.85;25.58;;;;;;;;;;5052190;28;20500;-72
2024/03/01 00:53:11;;;;;;;56.30;25.15;;;;;;;;;;5052223;28;20055;-72
2024/03/01 00:56:16;;;;;;;63.40;25.65;;;;;;;;;;5051076;28;20043;-72
2024/03/01 00:59:22;;;;;;;58.42;24.73;;;;;;;;;;5051072;28;20488;-72
2024/03/01 01:02:27;;;;;;;61.80;28.35;;;;;;;;;;5051886;28;20067;-72
2024/03/01 01:05:31;;;;;;;65.25;27.50;;;;;;;;;;5051668;28;20044;-72
2024/03/01 01:08:35;;;;;;;70.35;25.48;;;;;;;;;;5051727;28;20044;-72
2024/03/01 01:11:40;;;;;;;54.92;21.60;;;;;;;;;;5051780;28;20048;-72
2024/03/01 01:14:44;;;;;;;52.55;19.40;;;;;;;;;;5051786;28;20640;-72
2024/03/01 01:17:49;;;;;;;48.08;16.13;;;;;;;;;;5051340;28;20056;-72
2024/03/01 01:20:53;;;;;;;41.88;14.00;;;;;;;;;;5051709;28;20044;-72
2024/03/01 01:23:58;;;;;;;40.40;12.45;;;;;;;;;;5051538;28;20044;-72
2024/03/01 01:27:01;;;;;;;37.53;12.15;;;;;;;;;;5051496;28;20044;-71
2024/03/01 01:30:06;;;;;;;37.38;9.25;;;;;;;;;;5050960;28;20044;-72
2024/03/01 01:33:10;;;;;;;17.20;5.80;;;;;;;;;;5051278;28;20044;-72
2024/03/01 01:36:14;;;;;;;22.23;5.30;;;;;;;;;;5051352;28;20040;-72
2024/03/01 01:39:18;;;;;;;19.80;4.10;;;;;;;;;;5039002;28;20048;-72
2024/03/01 01:42:23;;;;;;;18.02;4.20;;;;;;;;;;5051394;28;20048;-72
2024/03/01 01:45:27;;;;;;;22.52;5.60;;;13.30;99.20;;;;;;5051263;28;20048;-72
2024/03/01 01:48:31;;;;;;;23.00;4.82;;;13.10;99.10;;;;;;5051180;28;20397;-72
2024/03/01 01:51:35;;;;;;;19.45;4.25;;;13.00;99.10;;;;;;5049994;28;20040;-72
2024/03/01 01:54:39;;;;;;;25.38;4.03;;;13.00;99.00;;;;;;5051088;28;20068;-72
2024/03/01 01:57:45;;;;;;;17.77;3.90;;;12.80;99.40;;;;;;5050819;28;20515;-72
2024/03/01 02:00:51;;;;;;;25.02;4.93;;;12.90;99.10;;;;;;5050764;28;20060;-72
2024/03/01 02:03:55;;;;;;;12.45;3.40;;;12.80;99.20;;;;;;5051116;28;20048;-72
2024/03/01 02:06:59;;;;;;;25.42;4.03;;;12.20;99.00;;;;;;5050060;28;20115;-72
2024/03/01 02:10:37;;;;;;;18.90;4.32;;;12.80;99.30;;;;;;5051045;28;20040;-72
2024/03/01 02:13:34;;;;;;;20.50;4.33;;;12.90;99.30;;;;;;5050784;28;20044;-71
2024/03/01 02:16:38;;;;;;;23.48;4.68;;;;;;;;;;5050528;28;20512;-70
2024/03/01 02:19:42;;;;;;;20.55;4.63;;;;;;;;;;5050943;28;20044;-71
2024/03/01 02:22:54;;;;;;;18.98;4.15;;;12.90;99.90;;;;;;5049830;28;20040;-71
2024/03/01 02:25:58;;;;;;;12.23;2.40;;;12.60;99.90;;;;;;5050603;28;20048;-71
2024/03/01 02:29:02;;;;;;;10.75;2.30;;;12.80;99.90;;;;;;5049889;28;20424;-70
2024/03/01 02:32:06;;;;;;;11.45;2.40;;;12.50;99.60;;;;;;5050531;28;20044;-71
2024/03/01 02:35:10;;;;;;;13.30;2.83;;;12.00;99.90;;;;;;5050792;28;20048;-71
2024/03/01 02:38:15;;;;;;;13.00;3.10;;;12.30;99.90;;;;;;5050435;28;20392;-71
2024/03/01 02:41:19;;;;;;;17.67;3.38;;;;;;;;;;5050693;28;20048;-71
2024/03/01 02:44:23;;;;;;;21.48;4.63;;;12.20;99.90;;;;;;5054504;28;20044;-71
2024/03/01 02:47:27;;;;;;;20.42;4.50;;;12.30;99.90;;;;;;5053690;28;20044;-71
2024/03/01 02:50:30;;;;;;;20.00;3.95;;;12.20;99.90;;;;;;5053757;28;20040;-71
2024/03/01 02:53:35;;;;;;;17.55;4.10;;;10.50;99.90;;;;;;5054656;28;20040;-71
2024/03/01 02:56:39;;;;;;;14.13;4.10;;;;;;;;;;5054158;28;20055;-71
2024/03/01 02:59:43;;;;;;;15.13;4.03;;;;;;;;;;5054014;28;20048;-72
2024/03/01 03:02:48;;;;;;;15.50;4.03;;;12.40;99.90;;;;;;5054420;28;20056;-71
2024/03/01 03:05:52;;;;;;;18.75;4.13;;;;;;;;;;5054313;28;20044;-71
2024/03/01 03:08:56;;;;;;;13.88;3.72;;;;;;;;;;5054118;28;20497;-71
2024/03/01 03:12:01;;;;;;;19.40;3.67;;;;;;;;;;5054194;28;20051;-71
2024/03/01 03:15:07;;;;;;;19.15;4.05;;;12.10;99.90;;;;;;5053266;28;20070;-71
2024/03/01 03:18:11;;;;;;;17.15;4.07;;;12.20;99.90;;;;;;5053642;28;20056;-71
2024/03/01 03:21:15;;;;;;;12.65;2.90;;;12.30;99.90;;;;;;5054499;28;20496;-71
2024/03/01 03:24:19;;;;;;;16.95;3.50;;;12.20;99.90;;;;;;5053822;28;20064;-70
2024/03/01 03:27:24;;;;;;;14.15;3.42;;;12.30;99.90;;;;;;5053643;28;20040;-71
2024/03/01 03:30:28;;;;;;;22.52;3.92;;;12.40;99.90;;;;;;5052755;28;20044;-71
2024/03/01 03:33:32;;;;;;;10.77;2.30;;;12.30;99.90;;;;;;5053538;28;20043;-71
2024/03/01 03:36:36;;;;;;;14.40;2.40;;;14.20;99.90;;;;;;5041177;28;20052;-71
2024/03/01 03:39:40;;;;;;;18.95;2.90;;;12.30;99.90;;;;;;5052720;28;20056;-71
2024/03/01 03:42:44;;;;;;;13.38;2.28;;;11.90;99.90;;;;;;5053135;28;20056;-71
2024/03/01 03:45:48;;;;;;;12.35;2.40;;;13.30;99.90;;;;;;5053440;28;20048;-71
2024/03/01 03:48:51;;;;;;;10.15;2.38;;;12.10;99.90;;;;;;5053213;28;20046;-71
2024/03/01 03:51:56;;;;;;;7.85;2.50;;;12.10;99.90;;;;;;5053272;28;20048;-71
2024/03/01 03:55:04;;;;;;;12.88;2.60;;;12.10;99.90;;;;;;5052254;28;20046;-71
2024/03/01 03:58:08;;;;;;;17.75;5.22;;;12.20;99.90;;;;;;5052853;28;20052;-71
2024/03/01 04:01:12;;;;;;;16.42;4.22;;;12.20;99.90;;;;;;5052801;28;20047;-71
2024/03/01 04:04:16;;;;;;;16.45;3.30;;;12.20;99.90;;;;;;5053193;28;20044;-71
2024/03/01 04:07:21;;;;;;;12.95;2.83;;;12.30;99.90;;;;;;5052805;28;20049;-71
2024/03/01 04:10:25;;;;;;;8.05;2.40;;;12.30;99.90;;;;;;5053119;28;20040;-71
2024/03/01 04:13:29;;;;;;;11.50;2.38;;;12.30;99.90;;;;;;5052996;28;20047;-71
2024/03/01 04:16:33;;;;;;;6.18;2.30;;;12.20;99.90;;;;;;5052795;28;20389;-71
2024/03/01 04:19:37;;;;;;;14.23;2.15;;;12.20;99.90;;;;;;5052957;28;20052;-71
2024/03/01 04:22:41;;;;;;;10.60;2.50;;;12.00;99.90;;;;;;5052883;28;20385;-71
2024/03/01 04:25:51;;;;;;;14.95;6.20;;;11.50;99.90;;;;;;5040574;28;20048;-71
2024/03/01 04:28:55;;;;;;;11.93;5.72;;;11.80;99.90;;;;;;5052841;28;20048;-71
2024/03/01 04:31:59;;;;;;;15.13;4.53;;;11.50;99.90;;;;;;5040240;28;20048;-72
2024/03/01 04:35:05;;;;;;;9.05;3.38;;;11.80;99.90;;;;;;5052176;28;20047;-72
2024/03/01 04:38:10;;;;;;;5.18;2.13;;;12.00;99.90;;;;;;5052310;28;20059;-72
2024/03/01 04:41:18;;;;;;;12.45;1.70;;;11.90;99.90;;;;;;5052374;28;20040;-72
2024/03/01 04:44:22;;;;;;;3.83;1.05;;;12.00;99.90;;;;;;5053022;28;20052;-72
2024/03/01 04:47:25;;;;;;;7.15;1.90;;;11.90;99.90;;;;;;5052568;28;20056;-71
2024/03/01 04:50:30;;;;;;;6.10;1.73;;;12.00;99.90;;;;;;5052711;28;20381;-71
2024/03/01 04:53:34;;;;;;;4.25;1.30;;;12.00;99.90;;;;;;5052503;28;20507;-70
2024/03/01 04:56:38;;;;;;;4.45;1.10;;;11.90;99.90;;;;;;5052389;28;20048;-70
2024/03/01 04:59:42;;;;;;;5.63;1.30;;;11.90;99.90;;;;;;5051325;28;20056;-70
2024/03/01 05:02:46;;;;;;;9.63;1.60;;;11.50;99.90;;;;;;5052178;28;20044;-70
2024/03/01 05:05:50;;;;;;;3.55;1.00;;;9.90;99.90;;;;;;5052057;28;20044;-71
2024/03/01 05:08:56;;;;;;;6.47;1.92;;;11.40;99.90;;;;;;5052123;28;20050;-71
2024/03/01 05:12:00;;;;;;;6.43;1.90;;;11.40;99.90;;;;;;5051993;28;20044;-70
2024/03/01 05:15:05;;;;;;;6.25;2.25;;;13.20;99.90;;;;;;5051980;28;20040;-70
2024/03/01 05:18:11;;;;;;;5.57;2.50;;;11.50;99.90;;;;;;5051506;28;20060;-70
2024/03/01 05:21:15;;;;;;;11.65;2.15;;;10.90;99.90;;;;;;5051827;28;20044;-71
2024/03/01 05:24:19;;;;;;;7.40;2.08;;;;;;;;;;5051734;28;20044;-70
2024/03/01 05:27:23;;;;;;;6.53;1.80;;;10.40;99.90;;;;;;5051436;28;20037;-71
2024/03/01 05:30:27;;;;;;;9.38;1.98;;;;;;;;;;5051463;28;20043;-71
2024/03/01 05:33:31;;;;;;;3.30;1.48;;;9.90;99.90;;;;;;5051597;28;20485;-72
2024/03/01 05:36:35;;;;;;;4.10;1.13;;;11.00;99.90;;;;;;5051327;28;20035;-71
2024/03/01 05:39:39;;;;;;;1.35;1.00;;;9.70;99.90;;;;;;5051454;28;20063;-71
2024/03/01 05:42:44;;;;;;;2.75;0.90;;;10.80;99.90;;;;;;5051095;28;20037;-70
2024/03/01 05:45:49;;;;;;;4.75;0.98;;;8.90;99.90;;;;;;5051190;28;20048;-71
2024/03/01 05:48:53;;;;;;;3.42;1.13;;;10.20;99.90;;;;;;5050422;28;20051;-71
2024/03/01 05:51:57;;;;;;;5.22;1.77;;;8.50;99.90;;;;;;5051175;28;20040;-71
2024/03/01 05:55:04;;;;;;;3.38;1.25;;;9.60;99.90;;;;;;5051268;28;20051;-71
2024/03/01 05:58:08;;;;;;;2.95;1.08;;;9.80;99.90;;;;;;5050261;28;20515;-71
2024/03/01 06:01:15;;;;;;;3.03;0.90;;;10.50;99.90;;;;;;5050987;28;20432;-70
2024/03/01 06:04:19;;;;;;;2.83;1.10;;;10.20;99.90;;;;;;5051547;28;20055;-71
2024/03/01 06:07:24;;;;;;;2.70;1.15;;;10.10;99.90;;;;;;5051203;28;20532;-70
2024/03/01 06:10:28;;;;;;;5.13;1.10;;;10.00;99.90;;;;;;5051228;28;20401;-71
2024/03/01 06:13:32;;;;;;;3.85;1.40;;;10.00;99.90;;;;;;5051240;28;20104;-71
2024/03/01 06:16:37;;;;;;;1.55;1.40;;;9.80;99.90;;;;;;5049394;28;20044;-69
2024/03/01 06:19:40;;;;;;;6.05;1.23;;;;;;;;;;5051063;28;20048;-69
2024/03/01 06:22:44;;;;;;;3.47;1.00;;;8.50;99.90;;;;;;5050955;28;20037;-70
2024/03/01 06:25:49;;;;;;;6.88;1.25;;;9.20;99.90;;;;;;5051098;28;20052;-70
2024/03/01 06:28:52;;;;;;;1.92;0.93;;;9.90;99.90;;;;;;5038618;28;20052;-72
2024/03/01 06:31:56;;;;;;;4.07;1.50;;;8.80;99.90;;;;;;5051320;28;20100;-74
2024/03/01 06:35:01;;;;;;;7.25;1.77;;;10.60;99.90;;;;;;5050246;28;20037;-73
2024/03/01 06:38:05;;;;;;;4.78;1.60;;;10.20;99.90;;;;;;5051030;28;20056;-72
2024/03/01 06:41:09;;;;;;;5.07;1.83;;;10.00;99.90;;;;;;5051010;28;20056;-72
2024/03/01 06:44:14;;;;;;;5.35;1.98;;;;;;;;;;5050675;28;20401;-72
2024/03/01 06:47:18;;;;;;;5.90;1.88;;;10.20;99.90;;;;;;5050535;28;20033;-73
2024/03/01 06:50:22;;;;;;;6.38;1.90;;;10.20;99.90;;;;;;5051377;28;20048;-73
2024/03/01 06:53:27;;;;;;;5.45;2.10;;;10.70;99.90;;;;;;5051601;28;20396;-72
2024/03/01 06:56:31;;;;;;;9.13;2.38;;;12.60;99.90;;;;;;5050652;28;20048;-72
2024/03/01 06:59:34;;;;;;;5.78;1.85;;;11.10;99.90;;;;;;5038687;28;20056;-72
2024/03/01 07:02:38;;;;;;;4.25;1.60;;;11.00;99.90;;;;;;5050633;28;20051;-74
2024/03/01 07:05:42;;;;;;;5.72;2.17;;;9.60;99.90;;;;;;5049987;28;20503;-72
2024/03/01 07:08:46;;;;;;;6.65;1.92;;;11.60;99.90;;;;;;5050365;28;20040;-72
2024/03/01 07:11:50;;;;;;;5.40;2.00;;;11.10;99.90;;;;;;5051004;28;20052;-72
2024/03/01 07:14:54;;;;;;;3.72;1.55;;;13.00;99.90;;;;;;5050108;28;20397;-74
2024/03/01 07:17:58;;;;;;;5.15;2.10;;;13.10;99.90;;;;;;5050803;28;20056;-69
2024/03/01 07:21:03;;;;;;;8.48;1.80;;;13.00;99.90;;;;;;5050752;28;20048;-73
2024/03/01 07:24:07;;;;;;;6.43;1.80;;;11.70;99.90;;;;;;5050627;28;20047;-74
2024/03/01 07:27:12;;;;;;;8.88;1.80;;;11.90;99.90;;;;;;5051013;28;20055;-76
2024/03/01 07:30:16;;;;;;;5.50;1.60;;;12.60;99.90;;;;;;5054242;28;20393;-71
2024/03/01 07:33:20;;;;;;;4.78;1.60;;;11.50;99.90;;;;;;5053758;28;20047;-72
2024/03/01 07:36:24;;;;;;;24.45;9.60;;;11.60;99.90;;;;;;5054101;28;20056;-71
2024/03/01 07:39:28;;;;;;;16.58;7.70;;;11.70;99.90;;;;;;5055568;28;20056;-76
2024/03/01 07:42:32;;;;;;;6.93;2.70;;;11.80;99.90;;;;;;5055096;28;20048;-73
2024/03/01 07:45:37;;;;;;;2.65;1.42;;;12.00;99.90;;;;;;5054246;28;20587;-73
2024/03/01 07:48:45;;;;;;;2.28;1.02;;;12.00;99.90;;;;;;5057048;28;20064;-79
2024/03/01 07:51:52;;;;;;;3.08;1.02;;;12.30;99.90;;;;;;5055036;28;20373;-74
2024/03/01 07:54:56;;;;;;;2.25;0.95;;;;;;;;;;5055886;28;20040;-75
2024/03/01 07:58:01;;;;;;;2.95;1.02;;;;;;;;;;5043382;28;20033;-79
2024/03/01 08:01:05;;;;;;;2.53;1.02;;;;;;;;;;5056992;28;20049;-77
2024/03/01 08:04:11;;;;;;;3.15;0.80;;;12.50;99.90;;;;;;5055057;28;20033;-73
2024/03/01 08:07:18;;;;;;;3.00;1.10;;;12.70;99.90;;;;;;5052908;28;20052;-77
2024/03/01 08:10:22;;;;;;;4.43;0.90;;;;;;;;;;5053553;28;20052;-72
2024/03/01 08:13:27;;;;;;;3.47;1.10;;;;;;;;;;5053326;28;20033;-72
2024/03/01 08:16:31;;;;;;;4.95;0.80;;;;;;;;;;5054316;28;20037;-79
2024/03/01 08:19:46;;;;;;;3.65;1.10;;;12.80;99.40;;;;;;5056464;28;20045;-77
2024/03/01 08:22:52;;;;;;;3.03;0.77;;;12.90;99.50;;;;;;5055479;28;20400;-74
2024/03/01 08:25:57;;;;;;;5.65;1.10;;;13.00;99.10;;;;;;5054428;28;20393;-74
2024/03/01 08:29:03;;;;;;;5.10;1.33;;;12.90;99.50;;;;;;5054557;28;20044;-72
2024/03/01 08:32:43;;;;;;;3.80;1.00;;;13.00;99.90;;;;;;5054118;28;20043;-73
2024/03/01 08:35:47;;;;;;;1.90;1.05;;;;;;;;;;5054191;28;20036;-80
2024/03/01 08:39:05;;;;;;;7.32;1.00;;;13.20;99.90;;;;;;5054243;28;20057;-72
2024/03/01 08:42:11;;;;;;;4.20;0.90;;;;;;;;;;5053918;28;20052;-74
2024/03/01 08:45:29;;;;;;;4.50;1.00;;;13.30;99.40;;;;;;5052705;28;20049;-78
2024/03/01 08:48:42;;;;;;;3.33;0.95;;;13.80;99.70;;;;;;5055077;28;20044;-76
2024/03/01 08:51:47;;;;;;;3.53;1.20;;;;;;;;;;5053578;28;20052;-75
2024/03/01 08:54:56;;;;;;;2.15;0.90;;;14.20;99.20;;;;;;5054793;28;20037;-73
2024/03/01 08:58:03;;;;;;;3.88;0.90;;;14.40;98.70;;;;;;5052346;28;20056;-74
2024/03/01 09:01:33;;;;;;;3.70;1.20;;;14.50;97.50;;;;;;5053677;28;20056;-75
2024/03/01 09:04:37;;;;;;;1.98;0.82;;;;;;;;;;5054122;28;20527;-73
2024/03/01 09:07:42;;;;;;;2.55;1.83;;;;;;;;;;5053327;28;20033;-74
2024/03/01 09:10:50;;;;;;;2.85;0.90;;;;;;;;;;5053153;28;20041;-72
2024/03/01 09:13:54;;;;;;;1.33;0.85;;;;;;;;;;5057014;28;20033;-70
2024/03/01 09:17:04;;;;;;;3.47;1.17;;;14.60;96.30;;;;;;5052805;28;20036;-68
2024/03/01 09:20:29;;;;;;;2.08;1.00;;;14.70;96.70;;;;;;5052609;28;20051;-72
2024/03/01 09:23:35;;;;;;;1.83;0.88;;;;;;;;;;5040399;28;20139;-69
2024/03/01 09:26:40;;;;;;;6.75;2.20;;;;;;;;;;5052582;28;20041;-70
2024/03/01 09:29:47;;;;;;;5.82;2.58;;;;;;;;;;5053971;28;20032;-69
2024/03/01 09:32:52;;;;;;;3.20;1.55;;;;;;;;;;5053701;28;20358;-69
2024/03/01 09:35:57;;;;;;;4.40;1.88;;;;;;;;;;5053015;28;20037;-74
2024/03/01 09:39:04;;;;;;;3.38;1.52;;;;;;;;;;5052113;28;20044;-68
2024/03/01 09:42:28;;;;;;;5.93;2.03;;;15.20;95.40;;;;;;5051548;28;20037;-70
2024/03/01 09:45:57;;;;;;;4.95;2.10;;;15.10;95.80;;;;;;5051972;28;20420;-70
2024/03/01 09:49:01;;;;;;;6.55;1.85;;;;;;;;;;5051149;28;20048;-71
2024/03/01 09:52:08;;;;;;;3.00;1.67;;;;;;;;;;5051836;28;20045;-71
2024/03/01 09:55:48;;;;;;;3.92;1.90;;;15.10;96.80;;;;;;5051784;28;20070;-69
2024/03/01 09:59:10;;;;;;;4.22;1.70;;;15.10;97.20;;;;;;5045796;28;20059;-74
2024/03/01 10:02:16;;;;;;;5.78;1.60;;;;;;;;;;5050644;28;20504;-71
2024/03/01 10:05:33;;;;;;;5.57;2.13;;;15.60;97.40;;;;;;5051583;28;20423;-71
2024/03/01 10:09:05;;;;;;;3.45;2.30;;;16.00;97.00;;;;;;5050717;28;20048;-70
2024/03/01 10:12:09;;;;;;;3.10;1.63;;;;;;;;;;5051123;28;20405;-70
2024/03/01 10:15:48;;;;;;;6.20;2.10;;;17.00;95.80;;;;;;5051340;28;20507;-70
2024/03/01 10:19:10;;;;;;;4.63;1.40;;;17.00;95.30;;;;;;5050130;28;20052;-69
2024/03/01 10:22:14;;;;;;;;;;;17.30;95.10;;;;;;5051492;28;20036;-70
2024/03/01 10:25:40;;;;;;;9.85;1.83;;;17.20;93.30;;;;;;5050759;28;19908;-70
2024/03/01 10:29:10;;;;;;;4.55;1.55;;;17.10;93.10;;;;;;5050862;28;20048;-71
2024/03/01 10:32:44;;;;;;;6.40;1.70;;;16.80;92.90;;;;;;5050692;28;20044;-74
2024/03/01 10:36:21;;;;;;;5.75;1.80;;;17.10;93.00;;;;;;5052749;28;20052;-79
2024/03/01 10:39:43;;;;;;;7.45;1.60;;;16.40;93.00;;;;;;5050889;28;20056;-75
2024/03/01 10:42:53;;;;;;;4.10;1.55;;;;;;;;;;5052526;28;20047;-76
2024/03/01 10:45:58;;;;;;;;;;;15.40;93.10;;;;;;5052238;28;20045;-75
2024/03/01 10:49:14;;;;;;;3.22;1.45;;;18.20;93.40;;;;;;5052679;28;19909;-72
2024/03/01 10:52:23;;;;;;;5.97;2.00;;;17.10;92.30;;;;;;5051587;28;20040;-75
2024/03/01 10:55:42;;;;;;;6.03;1.70;;;17.00;92.60;;;;;;5054305;28;20048;-74
2024/03/01 10:58:46;;;;;;;6.75;1.27;;;;;;;;;;5051398;28;20115;-73
2024/03/01 11:01:59;;;;;;;5.47;1.42;;;17.30;92.90;;;;;;5051612;28;20501;-74
2024/03/01 11:05:11;;;;;;;6.40;2.03;;;18.60;93.50;;;;;;5056271;28;20048;-73
2024/03/01 11:08:43;;;;;;;11.80;1.58;;;14.40;92.60;;;;;;5060657;28;20604;-72
2024/03/01 11:12:24;;;;;;;4.25;1.60;;;17.00;93.10;;;;;;5056661;28;20052;-71
2024/03/01 11:15:31;;;;;;;4.57;1.63;;;16.80;92.40;;;;;;5055402;28;20051;-72
2024/03/01 11:18:41;;;;;;;4.65;1.20;;;16.60;92.60;;;;;;5056711;28;20079;-75
2024/03/01 11:21:53;;;;;;;5.15;1.65;;;16.70;93.10;;;;;;5054555;28;20059;-73
2024/03/01 11:25:14;;;;;;;8.30;1.10;;;16.00;93.20;;;;;;5054884;28;20052;-71
2024/03/01 11:28:23;;;;;;;7.65;1.38;;;16.70;93.40;;;;;;5054446;28;20040;-73
2024/03/01 11:31:29;;;;;;;713.03;60.75;;;15.10;93.00;;;;;;5055900;28;20040;-69
2024/03/01 11:34:55;;;;;;;10.52;2.97;;;16.60;93.60;;;;;;5055163;28;20044;-73
2024/03/01 11:38:05;;;;;;;5.03;0.98;;;16.70;93.10;;;;;;5053843;28;20059;-68
2024/03/01 11:41:34;;;;;;;3.85;0.82;;;17.50;93.00;;;;;;5055169;28;20060;-69
2024/03/01 11:44:59;;;;;;;4.72;2.25;;;17.10;92.70;;;;;;5053752;28;20040;-70
2024/03/01 11:48:18;;;;;;;4.15;1.17;;;17.00;92.60;;;;;;5054465;28;20497;-70
2024/03/01 11:51:46;;;;;;;5.30;2.00;;;16.80;92.70;;;;;;5042046;28;20405;-71
2024/03/01 11:55:22;;;;;;;12.52;1.75;;;17.10;93.40;;;;;;5054512;28;20044;-70
2024/03/01 11:58:36;;;;;;;8.32;1.75;;;17.20;94.20;;;;;;5052326;28;20048;-68
2024/03/01 12:01:50;;;;;;;7.25;1.55;;;17.90;95.30;;;;;;5054345;28;20080;-72
2024/03/01 12:04:57;;;;;;;3.28;0.82;;;17.30;92.90;;;;;;5055206;28;20040;-70
2024/03/01 12:08:01;;;;;;;4.75;1.05;;;;;;;;;;5053518;28;20045;-72
2024/03/01 12:11:35;;;;;;;4.82;0.90;;;17.30;92.00;;;;;;5055816;28;20033;-75
2024/03/01 12:14:49;;;;;;;4.70;1.27;;;17.10;92.00;;;;;;5057502;28;20056;-76
2024/03/01 12:18:20;;;;;;;6.30;1.20;;;15.60;91.30;;;;;;5058688;28;20119;-75
2024/03/01 12:22:02;;;;;;;5.82;1.33;;;17.00;91.50;;;;;;5059766;28;20056;-75
2024/03/01 12:25:06;;;;;;;3.67;1.02;;;;;;;;;;5057745;28;20052;-75
2024/03/01 12:28:32;;;;;;;5.90;1.65;;;17.10;92.30;;;;;;5057679;28;20037;-74
2024/03/01 12:31:47;;;;;;;9.25;1.25;;;17.10;91.90;;;;;;5060361;28;20055;-75
2024/03/01 12:35:23;;;;;;;10.00;1.50;;;17.00;91.40;;;;;;5058231;28;20052;-73
2024/03/01 12:38:28;;;;;;;7.43;1.02;;;;;;;;;;5057874;28;20071;-74
2024/03/01 12:42:19;;;;;;;3.78;0.93;;;17.00;92.20;;;;;;5058767;28;20045;-76
2024/03/01 12:46:22;;;;;;;5.23;1.27;;;17.10;92.20;;;;;;5053982;28;20052;-75
2024/03/01 12:49:49;;;;;;;3.80;1.60;;;17.10;93.60;;;;;;5054743;28;20290;-76
2024/03/01 12:53:25;;;;;;;3.50;1.50;;;16.80;94.60;;;;;;5057062;28;20401;-75
2024/03/01 12:56:30;;;;;;;5.40;1.95;;;;;;;;;;5056550;28;20056;-77
2024/03/01 13:00:13;;;;;;;2.42;1.17;;;16.40;95.20;;;;;;5056334;28;20492;-76
2024/03/01 13:03:37;;;;;;;3.47;1.55;;;16.40;95.10;;;;;;5054782;28;20048;-77
2024/03/01 13:06:45;;;;;;;6.05;1.95;;;16.30;95.50;;;;;;5054867;28;20044;-77
2024/03/01 13:09:53;;;;;;;2.28;0.90;;;16.20;95.20;;;;;;5054444;28;20044;-75
2024/03/01 13:13:06;;;;;;;6.93;1.42;;;16.20;95.60;;;;;;5054870;28;20040;-76
2024/03/01 13:16:16;;;;;;;2.65;0.80;;;16.10;95.40;;;;;;5058450;28;20048;-76
2024/03/01 13:19:25;;;;;;;3.17;1.10;;;16.00;95.50;;;;;;5052106;28;20055;-73
2024/03/01 13:22:34;;;;;;;4.60;1.30;;;17.60;96.30;;;;;;5053532;28;20040;-71
2024/03/01 13:26:06;;;;;;;2.85;1.48;;;16.00;95.80;;;;;;5053178;28;20515;-74
2024/03/01 13:29:25;;;;;;;4.22;1.52;;;15.80;95.80;;;;;;5052206;28;20044;-73
2024/03/01 13:32:46;;;;;;;4.65;1.27;;;15.70;96.10;;;;;;5052787;28;20051;-71
2024/03/01 13:36:01;;;;;;;2.50;1.42;;;15.90;96.30;;;;;;5051800;28;20059;-72
2024/03/01 13:39:11;;;;;;;2.55;1.00;;;15.70;95.90;;;;;;5051877;28;20046;-73
2024/03/01 13:42:32;;;;;;;4.50;1.23;;;14.90;96.20;;;;;;5051998;28;20052;-72
2024/03/01 13:45:44;;;;;;;2.85;1.38;;;15.20;95.90;;;;;;5052428;28;20048;-73
2024/03/01 13:48:53;;;;;;;2.40;1.10;;;;;;;;;;5052750;28;20044;-74
2024/03/01 13:51:57;;;;;;;2.00;1.20;;;;;;;;;;5054237;28;20032;-74
2024/03/01 13:55:02;;;;;;;4.57;1.15;;;15.90;95.40;;;;;;5053963;28;20167;-72
2024/03/01 13:58:07;;;;;;;3.38;0.95;;;;;;;;;;5053681;28;20052;-72
2024/03/01 14:01:15;;;;;;;3.88;0.88;;;16.00;95.00;;;;;;5054171;28;20040;-74
2024/03/01 14:04:27;;;;;;;10.65;1.85;;;16.20;95.40;;;;;;5055778;28;20051;-75
2024/03/01 14:07:32;;;;;;;4.47;0.93;;;;;;;;;;5053234;28;20048;-72
2024/03/01 14:10:56;;;;;;;4.00;0.80;;;16.10;94.40;;;;;;5053216;28;20033;-74
2024/03/01 14:14:00;;;;;;;6.80;1.63;;;;;;;;;;5053965;28;20040;-74
2024/03/01 14:17:06;;;;;;;4.15;1.20;;;;;;;;;;5053014;28;20045;-73
2024/03/01 14:20:15;;;;;;;4.85;1.70;;;15.90;94.30;;;;;;5052966;28;20041;-72
2024/03/01 14:23:23;;;;;;;13.52;1.92;;;;;;;;;;5042234;28;20052;-73
2024/03/01 14:26:27;;;;;;;4.00;1.30;;;;;;;;;;5053409;28;20413;-73
2024/03/01 14:29:31;;;;;;;6.32;1.85;;;;;;;;;;5053350;28;20041;-72
2024/03/01 14:32:36;;;;;;;5.57;1.60;;;;;;;;;;5053291;28;20481;-72
2024/03/01 14:35:41;;;;;;;4.30;1.50;;;15.90;95.00;;;;;;5052300;28;20040;-71
2024/03/01 14:38:55;;;;;;;7.68;1.60;;;15.80;94.70;;;;;;5054166;28;20056;-72
2024/03/01 14:42:02;;;;;;;13.85;2.22;;;;;;;;;;5055100;28;20048;-70
2024/03/01 14:45:17;;;;;;;11.45;2.15;;;15.90;95.50;;;;;;5055021;28;20044;-73
2024/03/01 14:48:28;;;;;;;4.75;1.60;;;15.80;95.70;;;;;;5056288;28;20044;-70
2024/03/01 14:51:32;;;;;;;5.03;1.70;;;;;;;;;;5055900;28;20060;-70
2024/03/01 14:54:38;;;;;;;3.50;2.20;;;;;;;;;;5055224;28;20037;-71
2024/03/01 14:57:45;;;;;;;6.10;1.83;;;;;;;;;;5055396;28;20041;-72
2024/03/01 15:00:50;;;;;;;4.70;1.50;;;15.80;96.30;;;;;;5055205;28;20041;-70
2024/03/01 15:03:54;;;;;;;8.10;1.33;;;;;;;;;;5055087;28;20036;-71
2024/03/01 15:06:58;;;;;;;18.65;2.08;;;;;;;;;;5055560;28;20049;-72
2024/03/01 15:10:03;;;;;;;9.13;2.80;;;;;;;;;;5054118;28;20500;-69
2024/03/01 15:13:07;;;;;;;12.07;2.67;;;;;;;;;;5054586;28;20049;-69
2024/03/01 15:16:20;;;;;;;10.85;1.60;;;15.60;96.50;;;;;;5054333;28;20112;-69
2024/03/01 15:19:25;;;;;;;4.80;1.33;;;;;;;;;;5055008;28;20064;-71
2024/03/01 15:22:29;;;;;;;5.22;1.40;;;;;;;;;;5054730;28;20037;-71
2024/03/01 15:25:34;;;;;;;5.55;1.30;;;;;;;;;;5054368;28;20041;-69
2024/03/01 15:28:38;;;;;;;4.18;1.42;;;16.50;96.20;;;;;;5053322;28;20041;-69
2024/03/01 15:31:43;;;;;;;8.38;1.85;;;;;;;;;;5054380;28;20056;-68
2024/03/01 15:34:48;;;;;;;6.47;2.35;;;;;;;;;;5053195;28;20040;-69
2024/03/01 15:37:55;;;;;;;13.32;2.45;;;15.50;97.10;;;;;;5053828;28;20029;-70
2024/03/01 15:41:00;;;;;;;5.55;2.10;;;;;;;;;;5054171;28;20068;-69
2024/03/01 15:44:05;;;;;;;7.97;2.00;;;;;;;;;;5054007;28;20037;-70
2024/03/01 15:47:10;;;;;;;8.50;2.70;;;;;;;;;;5053635;28;20489;-70
2024/03/01 15:50:15;;;;;;;6.63;2.97;;;;;;;;;;5052158;28;20037;-69
2024/03/01 15:53:20;;;;;;;7.20;2.47;;;;;;;;;;5054062;28;20037;-72
2024/03/01 15:56:30;;;;;;;9.63;3.72;;;;;;;;;;5054098;28;20045;-70
2024/03/01 15:59:34;;;;;;;5.30;2.67;;;;;;;;;;5053754;28;20386;-71
2024/03/01 16:02:39;;;;;;;11.85;4.10;;;;;;;;;;5054211;28;20044;-71
2024/03/01 16:05:43;;;;;;;7.00;2.40;;;;;;;;;;5052412;28;20052;-71
2024/03/01 16:08:48;;;;;;;3.40;1.35;;;;;;;;;;5053704;28;20406;-72
2024/03/01 16:11:53;;;;;;;12.02;2.13;;;;;;;;;;5053285;28;20041;-71
2024/03/01 16:14:58;;;;;;;8.25;3.30;;;;;;;;;;5052328;28;20048;-70
2024/03/01 16:18:02;;;;;;;8.52;2.05;;;;;;;;;;5053673;28;20033;-71
2024/03/01 16:21:07;;;;;;;15.68;2.45;;;;;;;;;;5053684;28;20041;-71
2024/03/01 16:24:11;;;;;;;13.00;1.90;;;;;;;;;;5053607;28;20381;-70
2024/03/01 16:27:17;;;;;;;6.47;2.05;;;15.10;97.30;;;;;;5052707;28;20044;-70
2024/03/01 16:30:29;;;;;;;7.95;2.25;;;14.90;97.40;;;;;;5053131;28;20043;-69
2024/03/01 16:33:34;;;;;;;10.00;3.60;;;;;;;;;;5053539;28;20048;-72
2024/03/01 16:36:39;;;;;;;14.82;6.72;;;;;;;;;;5052848;28;20047;-72
2024/03/01 16:39:43;;;;;;;16.15;6.40;;;;;;;;;;5052397;28;20048;-71
2024/03/01 16:42:57;;;;;;;14.85;6.40;;;17.80;98.90;;;;;;5052692;28;20048;-69
2024/03/01 16:46:02;;;;;;;12.68;5.10;;;;;;;;;;5052516;28;20421;-69
2024/03/01 16:49:30;;;;;;;12.93;5.03;;;15.10;98.60;;;;;;5053266;28;20051;-73
2024/03/01 16:52:34;;;;;;;10.57;5.57;;;;;;;;;;5052643;28;20052;-70
2024/03/01 16:55:55;;;;;;;18.23;5.72;;;14.80;98.70;;;;;;5052453;28;20052;-70
2024/03/01 16:58:59;;;;;;;14.10;5.50;;;;;;;;;;5051559;28;20044;-70
2024/03/01 17:02:08;;;;;;;11.18;5.57;;;14.90;98.90;;;;;;5051584;28;20052;-71
2024/03/01 17:05:41;;;;;;;10.85;6.90;;;14.60;99.20;;;;;;5052441;28;20354;-73
2024/03/01 17:08:46;;;;;;;14.50;8.18;;;;;;;;;;5052831;28;20067;-77